Time;durP1;ratioP1;P1;durP2;ratioP2;P2;SDS_P1;SDS_P2;PMS_P1;PMS_P2;Temp;Humidity;BMP_temperature;BMP_pressure;BME280_temperature;BME280_humidity;BME280_pressure;Samples;Min_cycle;Max_cycle;Signal;HPM_P1;HPM_P2
2023/10/30 00:00:09;;;;;;;5.22;1.27;;;;;;;14.58;64.44;99789.97;5054550;28;20040;-74
2023/10/30 00:02:39;;;;;;;11.05;1.15;;;;;;;14.49;64.96;99787.53;5052793;28;20036;-75
2023/10/30 00:05:06;;;;;;;2.17;1.10;;;;;;;14.45;65.49;99785.88;5053802;28;20055;-76
2023/10/30 00:07:31;;;;;;;5.60;1.20;;;;;;;14.50;65.08;99782.28;5053209;28;20033;-76
2023/10/30 00:10:06;;;;;;;4.15;1.08;;;;;;;14.51;64.57;99780.53;5052518;28;20470;-76
2023/10/30 00:12:31;;;;;;;2.88;1.00;;;;;;;14.46;64.85;99777.09;5053771;28;20267;-75
2023/10/30 00:15:02;;;;;;;4.53;1.13;;;;;;;14.27;65.90;99773.97;5051741;28;20124;-75
2023/10/30 00:17:27;;;;;;;4.40;1.33;;;;;;;14.44;64.68;99773.66;5054773;28;20059;-76
2023/10/30 00:19:55;;;;;;;7.50;1.23;;;;;;;14.50;64.97;99781.41;5053522;28;20075;-76
2023/10/30 00:22:21;;;;;;;3.78;0.90;;;;;;;14.38;65.72;99795.63;5054293;28;20048;-76
2023/10/30 00:24:52;;;;;;;3.47;1.15;;;;;;;14.31;65.20;99798.34;5052572;28;20044;-75
2023/10/30 00:27:17;;;;;;;3.88;1.10;;;;;;;14.33;65.86;99807.94;5055184;28;20044;-75
2023/10/30 00:29:45;;;;;;;4.45;1.00;;;;;;;14.29;65.64;99814.09;5054915;28;20397;-75
2023/10/30 00:32:17;;;;;;;3.47;1.20;;;;;;;14.20;66.42;99823.03;5054101;28;20071;-75
2023/10/30 00:34:42;;;;;;;5.20;1.00;;;;;;;14.19;66.55;99833.53;5054325;28;20033;-74
2023/10/30 00:37:09;;;;;;;4.28;0.90;;;;;;;14.26;65.60;99827.28;5054075;28;20051;-74
2023/10/30 00:39:35;;;;;;;2.63;1.00;;;;;;;14.18;66.35;99830.03;5056294;28;20155;-74
2023/10/30 00:42:09;;;;;;;4.68;1.10;;;;;;;14.11;66.78;99838.03;5058469;28;20048;-73
2023/10/30 00:44:41;;;;;;;2.38;1.00;;;;;;;14.15;66.49;99834.44;5061010;28;20043;-74
2023/10/30 00:47:06;;;;;;;3.65;1.00;;;;;;;14.31;65.87;99835.06;5060148;28;20041;-74
2023/10/30 00:49:31;;;;;;;5.97;1.05;;;;;;;14.22;66.18;99833.47;5060863;28;20041;-73
2023/10/30 00:51:57;;;;;;;3.35;1.00;;;;;;;14.42;65.42;99843.63;5059042;28;20037;-74
2023/10/30 00:54:22;;;;;;;3.15;1.00;;;;;;;14.16;65.91;99847.53;5056113;28;20044;-74
2023/10/30 00:56:48;;;;;;;3.47;1.20;;;;;;;14.27;66.15;99847.38;5053007;28;20036;-74
2023/10/30 00:59:13;;;;;;;6.30;1.50;;;;;;;14.03;67.45;99847.78;5054818;28;20045;-74
2023/10/30 01:01:38;;;;;;;5.35;1.23;;;;;;;13.97;68.03;99846.13;5055155;28;20048;-75
2023/10/30 01:04:07;;;;;;;5.13;1.33;;;;;;;14.16;67.65;99852.78;5055935;28;20041;-74
2023/10/30 01:06:33;;;;;;;5.82;1.40;;;;;;;14.15;67.49;99845.81;5052091;28;20127;-74
2023/10/30 01:09:01;;;;;;;4.82;1.27;;;;;;;14.30;67.13;99851.69;5053094;28;20075;-73
2023/10/30 01:11:27;;;;;;;4.75;1.40;;;;;;;14.37;66.42;99856.81;5051500;28;20494;-73
2023/10/30 01:13:52;;;;;;;5.80;1.60;;;;;;;14.17;67.49;99840.53;5051483;28;20049;-74
2023/10/30 01:16:23;;;;;;;5.68;1.50;;;;;;;14.11;68.40;99844.13;5053194;28;20029;-74
2023/10/30 01:18:51;;;;;;;9.60;1.52;;;;;;;14.29;67.47;99842.94;5052246;28;20121;-74
2023/10/30 01:21:17;;;;;;;8.80;1.60;;;;;;;13.85;68.66;99848.94;5053565;28;20407;-73
2023/10/30 01:23:42;;;;;;;5.47;1.52;;;;;;;14.22;68.23;99852.69;5052646;28;20094;-73
2023/10/30 01:26:14;;;;;;;7.47;1.75;;;;;;;14.29;67.42;99848.19;5052730;28;20041;-74
2023/10/30 01:28:39;;;;;;;6.47;1.83;;;;;;;14.23;67.14;99850.91;5052830;28;20037;-74
2023/10/30 01:31:05;;;;;;;8.02;1.80;;;;;;;14.06;68.44;99850.34;5052875;28;20037;-73
2023/10/30 01:33:31;;;;;;;5.68;1.60;;;;;;;14.07;67.86;99846.84;5051092;28;20037;-74
2023/10/30 01:35:56;;;;;;;6.95;1.70;;;;;;;14.04;68.32;99841.66;5052389;28;20033;-74
2023/10/30 01:38:21;;;;;;;6.07;1.80;;;;;;;14.09;68.13;99850.28;5052823;28;20445;-74
2023/10/30 01:40:51;;;;;;;6.82;1.65;;;;;;;14.06;68.56;99855.59;5050393;28;20040;-74
2023/10/30 01:43:27;;;;;;;9.30;1.50;;;;;;;14.21;67.58;99865.81;5051720;28;20064;-73
2023/10/30 01:45:52;;;;;;;7.25;1.48;;;;;;;13.96;68.40;99859.28;5050998;28;20532;-73
2023/10/30 01:48:18;;;;;;;7.68;1.67;;;;;;;14.16;68.32;99858.03;5052905;28;20033;-73
2023/10/30 01:50:43;;;;;;;7.10;1.60;;;;;;;14.20;68.25;99859.72;5052191;28;20033;-74
2023/10/30 01:53:20;;;;;;;8.27;1.80;;;;;;;14.15;68.06;99861.53;5052985;28;20163;-73
2023/10/30 01:55:46;;;;;;;7.57;1.80;;;;;;;14.18;67.78;99868.50;5050578;28;20029;-73
2023/10/30 01:58:15;;;;;;;5.03;1.50;;;;;;;14.07;68.69;99855.59;5053219;28;20055;-74
2023/10/30 02:00:41;;;;;;;5.80;1.50;;;;;;;14.18;67.98;99865.88;5051033;28;20372;-74
2023/10/30 02:03:10;;;;;;;8.60;1.40;;;;;;;14.17;67.98;99870.25;5052910;28;20043;-74
2023/10/30 02:05:35;;;;;;;7.82;1.25;;;;;;;14.01;68.61;99878.41;5051683;28;20045;-74
2023/10/30 02:08:04;;;;;;;7.10;1.35;;;;;;;13.96;68.52;99883.72;5052088;28;20045;-74
2023/10/30 02:10:30;;;;;;;9.55;1.55;;;;;;;14.05;68.04;99886.19;5056986;28;20033;-73
2023/10/30 02:12:55;;;;;;;6.35;1.50;;;;;;;13.95;68.71;99876.75;5056225;28;20044;-73
2023/10/30 02:15:21;;;;;;;4.40;1.27;;;;;;;13.99;68.41;99881.03;5053080;28;20041;-73
2023/10/30 02:17:46;;;;;;;7.30;1.40;;;;;;;13.96;68.63;99880.22;5050358;28;20490;-73
2023/10/30 02:20:18;;;;;;;7.25;1.35;;;;;;;14.00;68.49;99882.78;5052499;28;20073;-74
2023/10/30 02:22:44;;;;;;;8.27;1.30;;;;;;;13.90;68.93;99881.19;5052088;28;20033;-74
2023/10/30 02:25:19;;;;;;;5.43;1.38;;;;;;;14.00;68.43;99887.16;5050613;28;20614;-74
2023/10/30 02:27:45;;;;;;;6.93;1.27;;;;;;;13.78;69.50;99871.75;5052427;28;20120;-75
2023/10/30 02:30:13;;;;;;;5.10;1.40;;;;;;;14.02;68.34;99880.13;5051221;28;20061;-75
2023/10/30 02:32:44;;;;;;;8.32;1.30;;;;;;;13.71;69.62;99885.84;5049511;28;20033;-77
2023/10/30 02:35:18;;;;;;;6.47;1.30;;;;;;;13.94;68.88;99887.25;5050481;28;20131;-74
2023/10/30 02:37:44;;;;;;;9.13;1.55;;;;;;;13.84;69.06;99891.78;5051420;28;20076;-75
2023/10/30 02:40:11;;;;;;;5.80;1.38;;;;;;;13.90;68.78;99893.44;5051735;28;20037;-74
2023/10/30 02:42:37;;;;;;;7.68;1.50;;;;;;;13.74;69.58;99892.78;5052080;28;20498;-74
2023/10/30 02:45:06;;;;;;;7.45;1.70;;;;;;;13.90;69.25;99890.81;5049830;28;20040;-74
2023/10/30 02:47:32;;;;;;;6.97;1.63;;;;;;;13.82;69.33;99890.94;5051369;28;20067;-74
2023/10/30 02:50:01;;;;;;;6.47;1.40;;;;;;;13.88;68.76;99898.69;5051224;28;20122;-74
2023/10/30 02:52:30;;;;;;;8.63;1.67;;;;;;;13.83;68.77;99905.75;5051821;28;20389;-74
2023/10/30 02:54:58;;;;;;;7.82;1.40;;;;;;;13.77;69.26;99900.63;5051394;28;20067;-74
2023/10/30 02:57:23;;;;;;;9.73;1.42;;;;;;;13.70;70.15;99917.31;5048997;28;20462;-74
2023/10/30 02:59:49;;;;;;;5.53;1.27;;;;;;;13.84;69.02;99919.72;5051808;28;20041;-74
2023/10/30 03:02:17;;;;;;;8.05;1.58;;;;;;;13.79;68.96;99906.66;5050707;28;20036;-74
2023/10/30 03:04:42;;;;;;;10.05;1.73;;;;;;;13.78;69.18;99913.66;5050787;28;20047;-74
2023/10/30 03:07:08;;;;;;;6.38;1.20;;;;;;;13.82;68.88;99915.38;5051565;28;20037;-74
2023/10/30 03:09:35;;;;;;;5.68;1.40;;;;;;;13.74;69.41;99917.22;5051269;28;20033;-74
2023/10/30 03:12:00;;;;;;;7.68;1.50;;;;;;;13.81;69.18;99918.00;5051302;28;20048;-74
2023/10/30 03:14:35;;;;;;;5.20;1.50;;;;;;;13.84;69.41;99912.75;5051127;28;20413;-74
2023/10/30 03:17:00;;;;;;;5.65;1.30;;;;;;;13.75;69.37;99920.72;5050921;28;20033;-74
2023/10/30 03:19:25;;;;;;;10.25;1.50;;;;;;;13.83;69.10;99921.47;5050101;28;20098;-74
2023/10/30 03:21:57;;;;;;;10.52;1.55;;;;;;;13.64;69.93;99925.25;5050394;28;20044;-74
2023/10/30 03:24:22;;;;;;;6.45;1.67;;;;;;;13.80;69.70;99922.38;5048876;28;20039;-73
2023/10/30 03:26:47;;;;;;;5.00;1.40;;;;;;;13.76;69.55;99918.09;5050657;28;20041;-73
2023/10/30 03:29:18;;;;;;;7.68;1.30;;;;;;;13.83;69.59;99918.84;5051279;28;20039;-74
2023/10/30 03:31:44;;;;;;;8.60;1.40;;;;;;;13.85;69.38;99919.69;5049370;28;20380;-74
2023/10/30 03:34:18;;;;;;;11.95;1.50;;;;;;;13.86;69.42;99920.56;5051018;28;20507;-74
2023/10/30 03:36:46;;;;;;;7.60;1.42;;;;;;;13.91;68.97;99918.72;5048562;28;20110;-73
2023/10/30 03:39:15;;;;;;;7.32;1.35;;;;;;;13.92;68.53;99910.84;5049939;28;20037;-74
2023/10/30 03:41:40;;;;;;;7.95;1.38;;;;;;;13.90;68.96;99917.00;5048864;28;20416;-74
2023/10/30 03:44:12;;;;;;;9.52;1.90;;;;;;;13.84;68.98;99915.34;5050272;28;20119;-73
2023/10/30 03:46:40;;;;;;;9.10;1.83;;;;;;;13.76;69.01;99918.09;5049930;28;20101;-74
2023/10/30 03:49:07;;;;;;;6.30;1.30;;;;;;;13.75;69.80;99910.25;5049346;28;20052;-74
2023/10/30 03:51:32;;;;;;;6.35;1.63;;;;;;;13.84;69.11;99917.09;5051117;28;20402;-74
2023/10/30 03:53:57;;;;;;;7.43;1.50;;;;;;;13.71;69.81;99919.91;5051630;28;22175;-74
2023/10/30 03:56:23;;;;;;;7.75;1.55;;;;;;;13.65;70.45;99922.63;5052053;28;20098;-74
2023/10/30 03:58:48;;;;;;;11.07;1.70;;;;;;;13.75;70.10;99926.81;5049891;28;20089;-74
2023/10/30 04:01:13;;;;;;;7.22;1.70;;;;;;;13.71;69.91;99919.91;5050621;28;20127;-74
2023/10/30 04:03:39;;;;;;;9.43;1.60;;;;;;;13.61;70.70;99922.66;5049838;28;20032;-76
2023/10/30 04:06:04;;;;;;;6.28;1.85;;;;;;;13.86;69.69;99928.41;5050021;28;20037;-74
2023/10/30 04:08:35;;;;;;;7.35;1.55;;;;;;;13.72;70.16;99926.00;5051455;28;20037;-73
2023/10/30 04:11:09;;;;;;;11.25;1.52;;;;;;;13.85;69.94;99929.28;5051370;28;20051;-73
2023/10/30 04:13:34;;;;;;;7.75;1.60;;;;;;;13.85;69.88;99922.31;5049941;28;20036;-73
2023/10/30 04:16:03;;;;;;;6.07;1.52;;;;;;;13.59;70.57;99920.09;5050227;28;20517;-73
2023/10/30 04:18:28;;;;;;;5.53;1.27;;;;;;;13.72;69.95;99919.00;5052267;28;20037;-74
2023/10/30 04:20:56;;;;;;;8.20;1.77;;;;;;;13.71;70.15;99914.66;5050605;28;20086;-74
2023/10/30 04:23:21;;;;;;;6.45;1.45;;;;;;;13.71;70.05;99909.44;5052478;28;20041;-73
2023/10/30 04:25:47;;;;;;;9.43;1.85;;;;;;;13.73;70.05;99912.88;5051496;28;20402;-74
2023/10/30 04:28:12;;;;;;;6.35;1.33;;;;;;;13.51;71.26;99913.22;5050650;28;20574;-74
2023/10/30 04:30:40;;;;;;;9.32;1.63;;;;;;;13.57;71.15;99911.38;5049251;28;20091;-74
2023/10/30 04:33:06;;;;;;;9.63;1.55;;;;;;;13.59;71.16;99900.88;5042307;28;20037;-75
2023/10/30 04:35:31;;;;;;;8.95;2.03;;;;;;;13.37;72.29;99902.91;5051548;28;20040;-74
2023/10/30 04:37:57;;;;;;;5.93;1.52;;;;;;;13.42;72.17;99915.97;5045076;28;20060;-74
2023/10/30 04:40:25;;;;;;;8.35;1.67;;;;;;;13.47;72.52;99901.94;5058702;28;20048;-74
2023/10/30 04:42:51;;;;;;;6.30;1.70;;;;;;;13.57;72.16;99915.75;5059423;28;20322;-74
2023/10/30 04:45:25;;;;;;;8.75;1.60;;;;;;;13.62;71.66;99916.53;5059184;28;20029;-74
2023/10/30 04:47:53;;;;;;;5.43;1.63;;;;;;;13.66;71.52;99919.09;5055155;28;20079;-74
2023/10/30 04:50:22;;;;;;;9.95;1.60;;;;;;;13.52;72.45;99904.47;5056632;28;20494;-74
2023/10/30 04:52:47;;;;;;;4.63;1.20;;;;;;;13.67;72.02;99914.72;5052755;28;20137;-74
2023/10/30 04:55:22;;;;;;;8.75;1.40;;;;;;;13.69;71.71;99919.06;5051528;28;20112;-74
2023/10/30 04:57:47;;;;;;;4.80;1.38;;;;;;;13.63;71.62;99939.22;5051284;28;20044;-74
2023/10/30 05:00:19;;;;;;;6.65;1.42;;;;;;;13.74;71.41;99940.81;5053407;28;20505;-74
2023/10/30 05:02:46;;;;;;;7.95;1.70;;;;;;;13.67;71.60;99928.69;5052726;28;20041;-74
2023/10/30 05:05:15;;;;;;;6.00;1.67;;;;;;;13.62;72.59;99929.63;5053142;28;20037;-74
2023/10/30 05:07:40;;;;;;;6.35;1.55;;;;;;;13.71;72.15;99925.16;5052399;28;20037;-74
2023/10/30 05:10:06;;;;;;;8.30;1.88;;;;;;;13.46;73.18;99941.22;5052710;28;20079;-74
2023/10/30 05:12:31;;;;;;;7.18;1.52;;;;;;;13.80;72.25;99932.00;5051075;28;20033;-74
2023/10/30 05:14:58;;;;;;;9.18;1.73;;;;;;;13.89;71.69;99918.78;5052108;28;20029;-74
2023/10/30 05:17:24;;;;;;;9.82;1.52;;;;;;;13.78;71.84;99908.44;5053240;28;20031;-74
2023/10/30 05:19:53;;;;;;;8.63;1.75;;;;;;;13.79;72.12;99907.53;5052900;28;20059;-74
2023/10/30 05:22:18;;;;;;;11.77;1.98;;;;;;;13.85;71.62;99921.44;5052388;28;20029;-74
2023/10/30 05:24:43;;;;;;;9.25;1.60;;;;;;;13.71;72.19;99917.28;5050850;28;20116;-74
2023/10/30 05:27:09;;;;;;;8.50;1.55;;;;;;;13.79;71.33;99901.44;5052799;28;20048;-74
2023/10/30 05:29:40;;;;;;;9.02;1.83;;;;;;;13.76;71.83;99905.00;5053224;28;20053;-74
2023/10/30 05:32:12;;;;;;;9.35;1.60;;;;;;;13.77;71.87;99914.59;5051050;28;20486;-74
2023/10/30 05:34:37;;;;;;;9.02;1.77;;;;;;;13.77;72.20;99903.22;5052449;28;20244;-73
2023/10/30 05:37:06;;;;;;;7.47;1.55;;;;;;;13.81;71.73;99913.63;5052608;28;20037;-73
2023/10/30 05:39:34;;;;;;;9.77;1.83;;;;;;;13.68;72.25;99909.47;5053269;28;20470;-74
2023/10/30 05:42:06;;;;;;;9.60;2.05;;;;;;;13.84;71.87;99907.50;5053987;28;20041;-73
2023/10/30 05:44:31;;;;;;;11.60;2.08;;;;;;;13.73;72.32;99912.88;5052565;28;20043;-73
2023/10/30 05:46:58;;;;;;;7.80;1.58;;;;;;;13.84;71.86;99923.22;5052428;28;20041;-74
2023/10/30 05:49:27;;;;;;;9.13;1.70;;;;;;;13.79;71.92;99930.25;5051870;28;20044;-74
2023/10/30 05:51:53;;;;;;;8.32;1.95;;;;;;;13.73;72.53;99930.34;5051284;28;20041;-73
2023/10/30 05:54:22;;;;;;;8.40;1.73;;;;;;;13.78;72.01;99913.66;5053038;28;20522;-74
2023/10/30 05:56:53;;;;;;;7.05;1.67;;;;;;;13.80;71.49;99913.66;5050724;28;20048;-74
2023/10/30 05:59:18;;;;;;;13.13;2.00;;;;;;;13.56;72.76;99909.63;5052729;28;20040;-74
2023/10/30 06:01:44;;;;;;;7.75;2.05;;;;;;;13.69;71.95;99912.94;5050839;28;20056;-75
2023/10/30 06:04:09;;;;;;;5.93;1.48;;;;;;;13.55;72.85;99910.53;5052451;28;20040;-74
2023/10/30 06:06:37;;;;;;;10.50;1.80;;;;;;;13.72;72.13;99926.84;5052925;28;20037;-75
2023/10/30 06:09:03;;;;;;;12.20;2.15;;;;;;;13.63;72.80;99920.91;5051080;28;20533;-74
2023/10/30 06:11:28;;;;;;;8.27;1.85;;;;;;;13.58;73.42;99926.22;5051916;28;20041;-75
2023/10/30 06:13:53;;;;;;;8.40;1.90;;;;;;;13.64;73.52;99926.13;5050164;28;20049;-74
2023/10/30 06:16:18;;;;;;;9.02;1.75;;;;;;;13.68;73.05;99942.66;5050862;28;20029;-73
2023/10/30 06:18:45;;;;;;;12.20;1.55;;;;;;;13.63;73.07;99945.34;5050948;28;20057;-75
2023/10/30 06:21:17;;;;;;;8.27;1.90;;;;;;;13.65;73.36;99946.19;5052226;28;20120;-74
2023/10/30 06:23:43;;;;;;;10.00;2.22;;;;;;;13.67;73.18;99952.25;5050335;28;20044;-75
2023/10/30 06:26:12;;;;;;;8.80;2.15;;;;;;;13.65;73.30;99951.44;5064951;22;20076;-46
2023/10/30 06:28:39;;;;;;;7.25;1.77;;;;;;;13.64;73.29;99954.06;5050654;28;20083;-51
2023/10/30 06:31:18;;;;;;;11.05;2.28;;;;;;;13.66;73.38;99957.53;5050188;28;20040;-47
2023/10/30 06:33:45;;;;;;;9.98;1.90;;;;;;;13.66;73.29;99949.69;5050098;28;20556;-45
2023/10/30 06:36:10;;;;;;;6.80;1.80;;;;;;;13.88;72.05;99940.59;5048035;28;20140;-47
2023/10/30 06:38:36;;;;;;;11.68;2.47;;;;;;;13.77;72.66;99942.53;5050438;28;20134;-45
2023/10/30 06:41:05;;;;;;;12.13;2.08;;;;;;;13.80;72.83;99942.47;5050043;28;20037;-46
2023/10/30 06:43:35;;;;;;;11.50;2.08;;;;;;;13.87;72.44;99943.25;5050178;28;20515;-45
2023/10/30 06:46:03;;;;;;;9.98;2.10;;;;;;;13.86;72.13;99952.00;5049409;28;20170;-43
2023/10/30 06:48:29;;;;;;;10.45;1.90;;;;;;;13.90;72.20;99945.84;5051364;28;20043;-45
2023/10/30 06:50:55;;;;;;;7.82;1.83;;;;;;;13.90;72.32;99951.94;5051068;28;20036;-44
2023/10/30 06:53:21;;;;;;;11.55;2.42;;;;;;;13.86;73.08;99954.59;5033236;28;20495;-45
2023/10/30 06:55:46;;;;;;;8.48;2.03;;;;;;;13.96;73.53;99958.84;5048206;28;20044;-45
2023/10/30 06:58:11;;;;;;;8.07;2.00;;;;;;;14.00;72.90;99952.66;5050157;28;20037;-46
2023/10/30 07:00:37;;;;;;;11.18;2.15;;;;;;;14.09;72.78;99942.88;5050032;28;20360;-45
2023/10/30 07:03:02;;;;;;;9.60;2.00;;;;;;;14.18;72.40;99947.13;5050216;28;20037;-47
2023/10/30 07:05:28;;;;;;;10.35;1.80;;;;;;;14.14;73.08;99950.69;5049648;28;20037;-46
2023/10/30 07:07:53;;;;;;;10.27;2.00;;;;;;;14.20;73.05;99958.47;5048051;28;20041;-48
2023/10/30 07:10:19;;;;;;;14.32;2.30;;;;;;;14.04;73.67;99964.81;5049821;28;20072;-46
2023/10/30 07:12:44;;;;;;;7.50;2.03;;;;;;;14.23;73.52;99974.13;5049644;28;20041;-46
2023/10/30 07:15:10;;;;;;;12.00;2.28;;;;;;;14.28;74.07;99976.66;5049588;28;20025;-45
2023/10/30 07:17:35;;;;;;;10.95;2.28;;;;;;;14.47;73.58;99981.63;5051663;28;20033;-45
2023/10/30 07:20:03;;;;;;;8.23;1.58;;;;;;;14.46;73.70;99987.78;5050029;28;20393;-45
2023/10/30 07:22:28;;;;;;;10.20;2.05;;;;;;;14.46;74.22;99985.16;5049159;28;20043;-47
2023/10/30 07:24:54;;;;;;;10.77;1.83;;;;;;;14.55;74.04;99994.63;5049191;28;20410;-46
2023/10/30 07:27:20;;;;;;;10.30;1.90;;;;;;;14.56;73.92;99984.13;5049507;28;20509;-48
2023/10/30 07:29:45;;;;;;;9.70;2.22;;;;;;;14.64;74.11;99981.34;5048881;28;20045;-46
2023/10/30 07:32:10;;;;;;;9.65;2.03;;;;;;;14.69;74.11;99982.16;5049447;28;20029;-48
2023/10/30 07:34:36;;;;;;;10.63;1.83;;;;;;;14.80;73.56;99979.34;5049712;28;20442;-44
2023/10/30 07:37:01;;;;;;;10.00;2.03;;;;;;;14.94;73.53;99988.66;5048907;28;20513;-46
2023/10/30 07:39:26;;;;;;;8.82;1.90;;;;;;;14.67;73.70;99991.81;5049823;28;20094;-48
2023/10/30 07:41:52;;;;;;;7.35;2.05;;;;;;;14.97;73.54;100003.50;5049131;28;20040;-47
2023/10/30 07:44:17;;;;;;;9.75;2.03;;;;;;;15.03;73.19;100020.00;5049889;28;20082;-46
2023/10/30 07:46:42;;;;;;;7.38;1.90;;;;;;;15.13;72.69;100025.06;5048841;28;20037;-46
2023/10/30 07:49:08;;;;;;;13.18;2.40;;;;;;;15.03;72.56;100025.25;5049648;28;20033;-48
2023/10/30 07:51:33;;;;;;;11.77;2.35;;;;;;;14.76;72.93;100024.91;5049250;28;20060;-43
2023/10/30 07:53:59;;;;;;;9.77;2.30;;;;;;;14.81;73.38;100020.44;5049046;28;20129;-45
2023/10/30 07:56:25;;;;;;;8.95;2.08;;;;;;;15.06;72.76;100021.72;5049385;28;20033;-45
2023/10/30 07:58:50;;;;;;;8.23;2.03;;;;;;;14.95;72.88;100013.16;5049077;28;20040;-48
2023/10/30 08:01:19;;;;;;;10.45;2.00;;;;;;;15.13;72.91;100006.69;5049780;28;20568;-45
2023/10/30 08:03:45;;;;;;;11.40;2.20;;;;;;;15.00;72.90;100003.47;5048670;28;20033;-48
2023/10/30 08:06:10;;;;;;;8.20;2.20;;;;;;;14.91;74.08;100003.63;5047831;28;20045;-47
2023/10/30 08:08:35;;;;;;;14.23;2.22;;;;;;;15.05;73.47;100003.38;5049387;28;20040;-48
2023/10/30 08:11:03;;;;;;;9.38;2.45;;;;;;;15.33;72.54;99996.69;5051033;28;20119;-46
2023/10/30 08:13:28;;;;;;;10.07;2.10;;;;;;;15.38;73.20;99984.31;5053527;28;20094;-45
2023/10/30 08:15:53;;;;;;;12.15;1.90;;;;;;;15.56;72.96;99980.47;5052591;28;20108;-45
2023/10/30 08:18:19;;;;;;;10.55;2.17;;;;;;;15.77;72.35;99980.91;5053445;28;20044;-45
2023/10/30 08:20:45;;;;;;;9.60;2.38;;;;;;;15.81;71.70;99977.28;5052554;28;20035;-48
2023/10/30 08:23:11;;;;;;;7.45;1.67;;;;;;;16.00;71.15;99966.38;5036391;28;20037;-47
2023/10/30 08:25:36;;;;;;;9.05;2.00;;;;;;;15.87;71.32;99978.91;5031546;28;20041;-49
2023/10/30 08:28:02;;;;;;;8.77;2.15;;;;;;;16.02;70.56;99981.22;5032141;28;20531;-45
2023/10/30 08:30:28;;;;;;;9.10;2.00;;;;;;;15.86;70.53;99986.84;5032781;28;20535;-46
2023/10/30 08:32:53;;;;;;;14.98;2.58;;;;;;;15.86;70.76;99989.50;5032081;28;20037;-45
2023/10/30 08:35:18;;;;;;;10.07;2.15;;;;;;;15.83;70.65;99991.28;5032612;28;20029;-45
2023/10/30 08:37:44;;;;;;;7.65;2.13;;;;;;;16.00;69.91;99990.03;5032007;28;20037;-45
2023/10/30 08:40:10;;;;;;;11.95;2.25;;;;;;;16.11;69.70;99998.53;5032479;28;20056;-45
2023/10/30 08:42:35;;;;;;;9.82;2.05;;;;;;;15.95;69.70;99991.91;5033033;28;20041;-50
2023/10/30 08:45:01;;;;;;;8.77;2.38;;;;;;;15.75;70.87;100008.09;5052165;28;20677;-49
2023/10/30 08:47:26;;;;;;;8.43;2.00;;;;;;;15.98;70.27;100008.44;5052425;28;20044;-46
2023/10/30 08:49:52;;;;;;;9.68;2.20;;;;;;;15.94;70.35;100008.56;5048305;28;20108;-47
2023/10/30 08:52:17;;;;;;;12.98;2.20;;;;;;;15.96;70.15;100015.53;5033199;28;20040;-45
2023/10/30 08:54:45;;;;;;;9.40;2.40;;;;;;;16.00;70.19;100016.31;5033569;28;20029;-46
2023/10/30 08:57:10;;;;;;;10.85;2.20;;;;;;;16.07;69.82;100007.41;5034052;28;20071;-46
2023/10/30 08:59:38;;;;;;;11.23;2.05;;;;;;;15.94;70.17;100008.56;5034448;28;20053;-46
2023/10/30 09:02:06;;;;;;;8.00;1.98;;;;;;;15.57;70.88;100024.25;5033354;28;20037;-46
2023/10/30 09:04:31;;;;;;;8.88;2.03;;;;;;;15.91;70.71;100024.41;5038426;28;20092;-47
2023/10/30 09:06:56;;;;;;;8.77;1.90;;;;;;;15.99;70.76;100032.97;5037037;28;20403;-45
2023/10/30 09:09:22;;;;;;;10.32;1.80;;;;;;;16.07;70.44;100026.66;5034964;28;20064;-44
2023/10/30 09:11:47;;;;;;;7.20;1.92;;;;;;;16.21;69.88;100029.00;5033906;28;20037;-46
2023/10/30 09:14:13;;;;;;;7.97;2.15;;;;;;;16.29;69.43;100037.53;5034721;28;20038;-49
2023/10/30 09:16:38;;;;;;;9.90;1.95;;;;;;;16.23;69.25;100035.06;5033571;28;20124;-50
2023/10/30 09:19:03;;;;;;;8.18;1.80;;;;;;;16.14;69.76;100028.25;5032184;28;20488;-47
2023/10/30 09:21:29;;;;;;;14.50;2.25;;;;;;;16.44;69.00;100020.56;5031941;28;20125;-47
2023/10/30 09:23:54;;;;;;;7.45;1.73;;;;;;;16.26;69.41;100015.72;5028949;28;20087;-45
2023/10/30 09:26:19;;;;;;;10.80;1.90;;;;;;;16.26;69.69;100034.13;5031441;28;20481;-48
2023/10/30 09:28:45;;;;;;;11.98;2.00;;;;;;;16.21;69.77;100036.88;5031439;28;20626;-48
2023/10/30 09:31:10;;;;;;;8.23;2.00;;;;;;;16.33;69.86;100033.09;5031812;28;20037;-45
2023/10/30 09:33:37;;;;;;;9.00;1.73;;;;;;;17.07;68.14;100022.50;5030937;28;20041;-47
2023/10/30 09:36:03;;;;;;;15.55;1.92;;;;;;;17.06;66.80;100031.31;5030711;28;20116;-48
2023/10/30 09:38:29;;;;;;;13.95;2.03;;;;;;;17.17;66.41;100029.25;5030950;28;20037;-47
2023/10/30 09:41:05;;;;;;;12.55;1.95;;;;;;;17.10;66.33;100028.53;5031208;28;20040;-48
2023/10/30 09:43:33;;;;;;;12.40;2.00;;;;;;;17.22;65.52;100028.22;5031313;28;20041;-50
2023/10/30 09:46:00;;;;;;;8.73;1.98;;;;;;;17.35;65.79;100028.75;5030458;28;20033;-48
2023/10/30 09:48:26;;;;;;;11.75;2.40;;;;;;;17.17;66.61;100026.59;5030141;28;20067;-45
2023/10/30 09:50:52;;;;;;;9.82;2.20;;;;;;;17.16;66.56;100031.00;5030310;28;20571;-45
2023/10/30 09:53:18;;;;;;;9.48;1.98;;;;;;;17.35;66.12;100023.47;5030957;28;20037;-45
2023/10/30 09:55:47;;;;;;;7.05;1.98;;;;;;;17.28;66.08;100014.00;5030728;28;20314;-44
2023/10/30 09:58:13;;;;;;;8.68;2.30;;;;;;;17.40;66.07;100008.38;5031245;28;20033;-44
2023/10/30 10:00:38;;;;;;;8.13;1.83;;;;;;;17.61;64.98;100006.97;5031306;28;20045;-46
2023/10/30 10:03:07;;;;;;;11.40;2.08;;;;;;;17.70;64.84;100009.31;5031169;28;20046;-45
2023/10/30 10:05:32;;;;;;;10.52;2.28;;;;;;;17.62;64.39;100009.56;5031298;28;20124;-46
2023/10/30 10:07:58;;;;;;;9.63;2.10;;;;;;;17.54;64.96;100000.97;5030281;28;20132;-47
2023/10/30 10:10:24;;;;;;;12.48;2.47;;;;;;;17.66;64.50;99992.72;5030506;28;20038;-46
2023/10/30 10:12:50;;;;;;;12.07;2.35;;;;;;;17.54;64.60;99995.69;5030533;28;20041;-44
2023/10/30 10:15:17;;;;;;;11.70;2.13;;;;;;;17.37;65.44;99995.31;5030842;28;20034;-47
2023/10/30 10:17:45;;;;;;;10.82;2.42;;;;;;;17.24;66.08;100004.47;5030085;28;20120;-45
2023/10/30 10:20:11;;;;;;;8.60;2.33;;;;;;;17.27;66.13;100009.63;5031246;28;20040;-49
2023/10/30 10:22:37;;;;;;;8.80;2.30;;;;;;;17.11;66.89;100017.09;5030506;28;20516;-47
2023/10/30 10:25:03;;;;;;;9.02;2.13;;;;;;;17.03;67.27;100016.44;5029634;28;20632;-49
2023/10/30 10:27:28;;;;;;;7.38;2.42;;;;;;;17.19;66.75;100025.66;5028899;28;20033;-51
2023/10/30 10:29:55;;;;;;;9.50;2.20;;;;;;;17.18;66.95;100013.41;5028827;28;20038;-50
2023/10/30 10:32:27;;;;;;;9.73;2.22;;;;;;;17.43;65.97;100013.59;5029751;28;20184;-49
2023/10/30 10:35:02;;;;;;;11.63;2.40;;;;;;;17.47;65.68;99986.22;5028736;28;20056;-46
2023/10/30 10:37:29;;;;;;;11.77;2.50;;;;;;;17.45;65.62;99983.63;5030682;28;20083;-45
2023/10/30 10:39:54;;;;;;;11.60;2.40;;;;;;;17.46;64.79;99989.78;5029514;28;20056;-49
2023/10/30 10:42:24;;;;;;;11.38;2.33;;;;;;;17.35;64.83;99991.84;5030234;28;20037;-50
2023/10/30 10:44:51;;;;;;;9.20;2.28;;;;;;;17.42;65.02;100002.19;5029608;28;20033;-45
2023/10/30 10:47:18;;;;;;;14.50;2.33;;;;;;;17.30;65.23;100004.28;5029914;28;20052;-48
2023/10/30 10:49:43;;;;;;;10.95;2.40;;;;;;;17.21;65.85;100002.75;5038636;28;20040;-48
2023/10/30 10:52:12;;;;;;;10.35;2.40;;;;;;;17.16;66.27;99998.53;5050195;28;20045;-47
2023/10/30 10:54:45;;;;;;;13.70;2.90;;;;;;;16.98;67.54;100007.78;5050088;28;20443;-47
2023/10/30 10:57:15;;;;;;;13.63;2.80;;;;;;;16.93;67.72;100007.94;5049514;28;20037;-47
2023/10/30 10:59:45;;;;;;;8.80;2.60;;;;;;;17.15;67.52;99997.66;5048813;28;20563;-44
2023/10/30 11:02:14;;;;;;;10.55;2.55;;;;;;;17.16;67.14;99991.50;5049438;28;20047;-46
2023/10/30 11:04:40;;;;;;;12.63;2.40;;;;;;;17.26;67.00;99998.22;5047101;28;20040;-46
2023/10/30 11:07:10;;;;;;;8.68;2.63;;;;;;;17.46;66.87;100002.94;5049505;28;20037;-45
2023/10/30 11:09:44;;;;;;;11.98;2.65;;;;;;;17.64;66.42;100005.09;5049716;28;20033;-45
2023/10/30 11:12:37;;;;;;;10.00;2.40;;;;;;;17.63;66.02;100005.13;5049669;28;20037;-46
2023/10/30 11:15:30;;;;;;;12.77;2.40;;;;;;;17.51;65.50;99990.50;5048917;28;20078;-47
2023/10/30 11:18:22;;;;;;;10.05;2.78;;;;;;;17.74;65.35;99992.50;5049621;28;20049;-46
2023/10/30 11:20:53;;;;;;;12.05;2.03;;;;;;;17.36;65.85;100005.00;5049230;28;20124;-51
2023/10/30 11:23:44;;;;;;;10.63;1.90;;;;;;;17.74;65.13;99990.75;5049965;28;20029;-44
2023/10/30 11:26:38;;;;;;;10.20;1.83;;;;;;;17.80;64.87;99982.66;5049228;28;20059;-48
2023/10/30 11:29:17;;;;;;;15.23;1.92;;;;;;;17.91;64.45;99971.78;5049223;28;20047;-47